Apodaca, New Mexico
Current Conditions -  °F | °C
As of 7:55 AM on Friday 24 Oct 2014 (Local Time) from KSKX Reporting Station
Clear Clear  
Wind Chill: 29°   Ceiling: Unl
Heat Index: 34°   Visibility: 10mi
Dew Point: 27°   Wind: 6mph
Humidity: 75%   Direction: 360°N
Pressure: 30.4"   Gusts: NA
Location:  36.1644°N, 105.863°W
Report Text: KSKX 241355Z AUTO 36005KT 10SM CLR 01/M03 A3040 RMK AO1
Loading
Personal Weather Stations






























Interactive Weather Map New forecast layout! Learn more

10-Day Weather Forecast

Advertisements
Track Severe Weather on mobile